createdAt,value
2018-12-05T05:31:27.111Z,14.75
2018-12-05T05:33:55.638Z,15.88
2018-12-05T05:36:24.207Z,15.65
2018-12-05T05:38:53.006Z,15.08
2018-12-05T05:41:21.444Z,14.18
2018-12-05T05:43:49.980Z,15.05
2018-12-05T05:46:18.526Z,14.35
2018-12-05T05:48:47.131Z,14.23
2018-12-05T05:51:15.898Z,13.40
2018-12-05T05:53:44.446Z,13.58
2018-12-05T05:56:12.826Z,13.55
2018-12-05T05:58:41.246Z,13.72
2018-12-05T06:01:09.718Z,13.03
2018-12-05T06:03:38.286Z,12.93
2018-12-05T06:06:06.830Z,14.07
2018-12-05T06:08:35.302Z,12.53
2018-12-05T06:11:04.190Z,13.43
2018-12-05T06:13:32.734Z,12.03
2018-12-05T06:16:01.364Z,13.75
2018-12-05T06:18:29.907Z,12.82
2018-12-05T06:20:58.335Z,12.40
2018-12-05T06:23:26.820Z,12.15
2018-12-05T06:40:03.446Z,12.07
2018-12-05T06:42:31.936Z,12.63
2018-12-05T06:45:00.554Z,12.15
2018-12-05T06:47:29.012Z,11.73
2018-12-05T06:49:57.508Z,12.50
2018-12-05T06:52:25.964Z,11.53
2018-12-05T06:54:54.387Z,10.88
2018-12-05T06:57:22.766Z,11.63
2018-12-05T07:00:09.418Z,11.35
2018-12-05T07:02:37.873Z,11.35
2018-12-05T07:05:13.279Z,12.35
2018-12-05T08:20:01.925Z,8.53
2018-12-05T08:22:30.473Z,8.85
2018-12-05T08:24:58.940Z,8.35
2018-12-05T08:27:27.329Z,8.83
2018-12-05T08:29:55.727Z,9.30
2018-12-05T08:32:24.207Z,10.30
2018-12-05T08:59:26.128Z,9.90
2018-12-05T09:01:54.594Z,10.32
2018-12-05T09:04:23.004Z,10.50
2018-12-05T09:06:51.524Z,10.75
2018-12-05T09:09:20.020Z,10.88
2018-12-05T09:11:48.398Z,11.08
2018-12-05T09:14:16.814Z,10.82
2018-12-05T09:16:45.323Z,10.78
2018-12-05T09:19:13.742Z,12.53
2018-12-05T09:21:42.159Z,11.28
2018-12-05T09:24:10.540Z,11.40
2018-12-05T09:26:38.909Z,11.08
2018-12-05T09:29:07.493Z,12.10
2018-12-05T09:31:35.892Z,11.48
2018-12-05T09:34:04.367Z,11.28
2018-12-05T09:36:32.796Z,10.55
2018-12-05T09:39:01.329Z,10.78
2018-12-05T09:41:29.745Z,11.65
2018-12-05T09:43:58.189Z,12.78
2018-12-05T09:46:26.579Z,11.93
2018-12-05T09:48:55.124Z,10.60
2018-12-05T09:51:23.523Z,10.38
2018-12-05T09:53:51.957Z,11.50
2018-12-05T09:56:20.453Z,12.28
2018-12-05T09:58:48.804Z,11.93
2018-12-05T10:01:17.146Z,11.80
2018-12-05T10:03:45.516Z,10.90
2018-12-05T10:06:13.917Z,10.30
2018-12-05T10:08:42.310Z,11.55
2018-12-05T10:11:10.765Z,11.60
2018-12-05T10:13:39.114Z,11.90
2018-12-05T10:16:07.529Z,11.55
2018-12-05T10:18:35.905Z,12.43
2018-12-05T10:21:04.449Z,11.08
2018-12-05T10:23:32.865Z,11.28
2018-12-05T10:26:01.331Z,11.22
2018-12-05T10:28:29.821Z,10.93
2018-12-05T10:30:58.237Z,9.75
2018-12-05T10:33:26.609Z,9.68
2018-12-05T10:35:55.013Z,10.40
2018-12-05T10:38:23.475Z,9.90
2018-12-05T10:40:51.911Z,9.90
2018-12-05T10:43:20.445Z,10.45
2018-12-05T10:45:48.852Z,9.23
2018-12-05T10:48:17.421Z,10.10
2018-12-05T10:50:45.769Z,10.80
2018-12-05T10:53:14.227Z,10.28
2018-12-05T10:55:42.694Z,10.20
2018-12-05T10:58:11.121Z,9.15
2018-12-05T11:00:45.001Z,9.55
2018-12-05T11:03:17.386Z,10.13
2018-12-05T11:05:51.185Z,9.00
2018-12-05T11:08:24.886Z,10.50
2018-12-05T11:10:58.674Z,9.95
2018-12-05T11:13:32.384Z,10.08
2018-12-05T11:16:06.180Z,10.18
2018-12-05T11:18:39.873Z,10.95
2018-12-05T11:21:13.634Z,10.80
2018-12-05T11:23:47.630Z,12.13
2018-12-05T11:26:19.525Z,10.98
2018-12-05T11:28:47.934Z,10.65
2018-12-05T11:31:16.340Z,11.48
2018-12-05T11:33:44.800Z,10.50
2018-12-05T11:36:13.359Z,10.98
2018-12-05T11:38:41.748Z,10.98
2018-12-05T11:41:10.165Z,10.53
2018-12-05T11:43:38.734Z,10.55
2018-12-05T11:46:07.185Z,10.55
2018-12-05T11:48:35.590Z,12.30
2018-12-05T11:51:04.357Z,10.70
2018-12-05T11:53:32.770Z,11.20
2018-12-05T11:56:01.233Z,10.60
2018-12-05T11:58:29.615Z,10.95
2018-12-05T12:00:57.974Z,10.85
2018-12-05T12:03:26.374Z,11.30
2018-12-05T12:05:54.803Z,10.35
2018-12-05T12:08:23.193Z,11.25
2018-12-05T12:10:51.645Z,12.60
2018-12-05T12:13:20.059Z,14.25
2018-12-05T12:15:48.541Z,11.55
2018-12-05T12:18:16.927Z,11.57
2018-12-05T12:20:45.566Z,13.53
2018-12-05T12:23:14.000Z,12.40
2018-12-05T12:25:42.485Z,12.37
2018-12-05T12:28:10.907Z,12.63
2018-12-05T12:30:39.276Z,13.50
2018-12-05T12:47:20.904Z,11.40
2018-12-05T12:49:49.304Z,12.18
2018-12-05T12:52:17.681Z,11.80
2018-12-05T12:54:46.083Z,11.95
2018-12-05T12:57:14.553Z,12.85
2018-12-05T12:59:43.047Z,11.57
2018-12-05T13:02:11.508Z,11.28
2018-12-05T13:18:52.743Z,12.73
2018-12-05T13:21:21.216Z,11.88
2018-12-05T13:23:49.651Z,11.85
2018-12-05T13:26:18.067Z,13.10
2018-12-05T13:42:59.650Z,12.43
2018-12-05T13:45:28.138Z,12.80
2018-12-05T13:47:56.657Z,12.18
2018-12-05T13:50:25.071Z,13.22
2018-12-05T13:52:53.545Z,12.40
2018-12-05T13:55:22.053Z,13.28
2018-12-05T13:57:50.468Z,12.70
2018-12-05T14:00:18.867Z,12.10
2018-12-05T14:02:47.260Z,12.58
2018-12-05T14:05:15.737Z,12.25
2018-12-05T14:07:44.148Z,12.30
2018-12-05T14:10:12.622Z,12.07
2018-12-05T14:12:41.019Z,12.35
2018-12-05T14:15:10.527Z,15.03
2018-12-05T14:17:39.009Z,12.55
2018-12-05T14:20:08.882Z,13.20
2018-12-05T14:22:37.325Z,13.50
2018-12-05T14:25:07.032Z,13.28
2018-12-05T14:27:35.683Z,14.33
2018-12-05T14:30:05.103Z,12.47
2018-12-05T14:53:05.981Z,12.35
2018-12-05T14:55:34.445Z,12.88
2018-12-05T14:58:02.999Z,14.47
2018-12-05T15:00:31.504Z,12.65
2018-12-05T15:03:00.021Z,13.53
2018-12-05T15:05:28.506Z,15.08
2018-12-05T15:07:56.948Z,13.55
2018-12-05T15:10:26.367Z,13.88
2018-12-05T15:12:54.817Z,13.85
2018-12-05T15:15:23.401Z,13.62
2018-12-05T15:17:51.816Z,14.53
2018-12-05T15:20:20.318Z,14.65
2018-12-05T15:22:48.777Z,14.47
2018-12-05T15:25:17.180Z,14.20
2018-12-05T15:27:45.957Z,14.15
2018-12-05T15:30:14.418Z,13.53
2018-12-05T15:32:42.971Z,14.68
2018-12-05T15:35:11.349Z,14.28
2018-12-05T15:37:40.179Z,14.60
2018-12-05T15:40:08.922Z,15.00
2018-12-05T15:42:37.412Z,16.23
2018-12-05T15:45:07.268Z,14.60
2018-12-05T15:47:36.438Z,15.25
2018-12-05T15:50:06.975Z,14.83
2018-12-05T15:52:35.579Z,13.83
2018-12-05T15:55:04.289Z,15.78
2018-12-05T15:57:32.709Z,16.00
2018-12-05T16:00:01.172Z,17.17
2018-12-05T16:02:29.620Z,15.70
2018-12-05T16:04:58.308Z,17.42
2018-12-05T16:07:26.834Z,15.35
2018-12-05T16:09:55.362Z,15.03
2018-12-05T16:12:23.773Z,15.43
2018-12-05T16:14:52.194Z,14.90
2018-12-05T16:17:20.706Z,15.85
2018-12-05T16:19:49.152Z,15.95
2018-12-05T16:22:17.608Z,18.10
2018-12-05T16:24:46.034Z,16.07
2018-12-05T16:27:14.927Z,17.12
2018-12-05T16:29:43.403Z,16.42
2018-12-05T16:32:11.882Z,16.27
2018-12-05T16:34:40.370Z,15.70
2018-12-05T16:37:08.809Z,16.15
2018-12-05T16:39:37.353Z,16.65
2018-12-05T16:42:05.907Z,17.10
2018-12-05T16:44:34.461Z,16.70
2018-12-05T16:47:02.853Z,16.30
2018-12-05T16:49:31.382Z,15.90
2018-12-05T16:51:59.814Z,17.67
2018-12-05T16:54:28.628Z,16.48
2018-12-05T16:56:57.321Z,15.13
2018-12-05T16:59:25.805Z,16.20
2018-12-05T17:01:54.237Z,14.83
2018-12-05T17:04:22.715Z,15.95
2018-12-05T17:06:51.201Z,16.05
2018-12-05T17:09:26.112Z,15.45
2018-12-05T17:11:52.623Z,15.70
2018-12-05T17:14:21.237Z,14.95
2018-12-05T17:16:49.686Z,15.35
2018-12-05T17:19:19.592Z,14.90
2018-12-05T17:21:48.682Z,15.48
2018-12-05T17:24:17.551Z,15.23
2018-12-05T17:26:46.533Z,15.45
2018-12-05T17:29:16.448Z,14.58
2018-12-05T17:31:44.937Z,15.35
2018-12-05T17:34:13.818Z,14.15
2018-12-05T17:36:42.328Z,14.25
2018-12-05T17:39:10.783Z,14.98
2018-12-05T17:41:39.301Z,16.15
2018-12-05T17:44:09.028Z,14.78
2018-12-05T17:46:37.347Z,16.20
2018-12-05T17:49:05.904Z,15.00
2018-12-05T17:51:34.337Z,16.02
2018-12-05T17:54:03.429Z,14.78
2018-12-05T17:56:32.798Z,16.23
2018-12-05T17:59:01.231Z,15.85
2018-12-05T18:01:29.780Z,15.45
2018-12-05T18:03:58.694Z,17.07
2018-12-05T18:06:27.293Z,17.27
2018-12-05T18:08:55.924Z,16.65
2018-12-05T18:11:24.962Z,15.45
2018-12-05T18:13:53.382Z,15.70
2018-12-05T18:16:21.826Z,15.68
2018-12-05T18:18:50.294Z,16.00
2018-12-05T18:21:18.814Z,17.67
2018-12-05T18:23:47.807Z,15.38
2018-12-05T18:26:16.298Z,16.12
2018-12-05T18:28:44.822Z,16.30
2018-12-05T18:31:13.403Z,14.55
2018-12-05T18:33:41.884Z,15.75
2018-12-05T18:36:10.310Z,15.95
2018-12-05T18:38:38.734Z,16.15
2018-12-05T18:41:07.325Z,16.45
2018-12-05T18:43:36.458Z,15.83
2018-12-05T18:46:05.038Z,15.48
2018-12-05T18:48:33.602Z,16.07
2018-12-05T18:51:02.072Z,16.07
2018-12-05T18:53:30.561Z,16.02
2018-12-05T18:55:59.820Z,16.00
2018-12-05T18:58:28.380Z,14.55
2018-12-05T19:00:56.832Z,15.15
2018-12-05T19:03:25.444Z,15.35
2018-12-05T19:05:53.981Z,15.13
2018-12-05T19:08:22.763Z,16.20
2018-12-05T19:10:51.238Z,16.07
2018-12-05T19:13:21.445Z,16.32
2018-12-05T19:15:50.076Z,15.40
2018-12-05T19:18:18.679Z,17.23
2018-12-05T19:20:47.228Z,16.70
2018-12-05T19:23:15.817Z,15.93
2018-12-05T19:25:45.292Z,16.82
2018-12-05T19:28:13.859Z,18.85
2018-12-05T19:30:42.459Z,15.45
2018-12-05T19:33:11.012Z,16.17
2018-12-05T19:35:39.693Z,16.30
2018-12-05T19:38:08.402Z,15.93
2018-12-05T19:40:36.973Z,15.90
2018-12-05T19:43:05.975Z,17.12
2018-12-05T19:45:36.067Z,15.18
2018-12-05T19:48:04.712Z,16.00
2018-12-05T19:50:33.137Z,16.55
2018-12-05T19:53:01.729Z,16.70
2018-12-05T19:55:30.419Z,17.10
2018-12-05T19:57:59.014Z,16.85
2018-12-05T20:00:27.907Z,16.20
2018-12-05T20:02:56.661Z,17.27
2018-12-05T20:05:25.365Z,17.10
2018-12-05T20:07:53.935Z,18.62
2018-12-05T20:10:22.558Z,17.60
2018-12-05T20:12:51.394Z,15.95
2018-12-05T20:15:19.955Z,16.95
2018-12-05T20:17:48.460Z,16.40
2018-12-05T20:20:17.588Z,16.12
2018-12-05T20:22:46.295Z,17.25
2018-12-05T20:25:14.865Z,16.52
2018-12-05T20:27:44.187Z,16.70
2018-12-05T20:30:12.919Z,16.65
2018-12-05T20:32:41.565Z,15.90
2018-12-05T20:35:10.695Z,17.40
2018-12-05T20:37:39.773Z,15.78
2018-12-05T20:40:08.612Z,16.12
2018-12-05T20:42:37.796Z,16.00
2018-12-05T20:45:06.649Z,16.80
2018-12-05T20:47:35.757Z,15.53
2018-12-05T20:50:05.101Z,16.10
2018-12-05T20:52:34.830Z,15.68
2018-12-05T20:55:03.434Z,15.95
2018-12-05T20:57:31.904Z,16.67
2018-12-05T21:00:02.344Z,17.45
2018-12-05T21:02:30.809Z,15.60
2018-12-05T21:04:59.364Z,16.97
2018-12-05T21:07:28.158Z,16.67
2018-12-05T21:09:56.961Z,16.95
2018-12-05T21:12:25.426Z,16.25
2018-12-05T21:14:54.238Z,15.83
2018-12-05T21:17:22.669Z,15.43
2018-12-05T21:19:51.796Z,16.62
2018-12-05T21:22:20.300Z,16.73
2018-12-05T21:24:48.749Z,15.10
2018-12-05T21:27:19.170Z,16.95
2018-12-05T21:29:47.860Z,16.65
2018-12-05T21:32:16.616Z,16.30
2018-12-05T21:34:45.154Z,15.70
2018-12-05T21:37:15.354Z,16.15
2018-12-05T21:39:44.028Z,16.95
2018-12-05T21:42:12.813Z,16.85
2018-12-05T21:44:42.966Z,16.32
2018-12-05T21:47:13.074Z,16.67
2018-12-05T21:49:42.290Z,17.77
2018-12-05T21:52:11.526Z,17.20
2018-12-05T21:54:40.649Z,16.95
2018-12-05T21:57:09.909Z,16.00
2018-12-05T21:59:39.411Z,16.82
2018-12-05T22:02:09.314Z,16.97
2018-12-05T22:04:37.816Z,18.00
2018-12-05T22:07:06.710Z,16.87
2018-12-05T22:09:35.332Z,16.57
2018-12-05T22:12:03.906Z,16.65
2018-12-05T22:14:32.644Z,17.25
2018-12-05T22:17:01.493Z,18.15
2018-12-05T22:19:29.923Z,17.23
2018-12-05T22:21:58.328Z,19.32
2018-12-05T22:24:26.826Z,18.82
2018-12-05T22:26:55.433Z,18.30
2018-12-05T22:29:23.853Z,17.73
2018-12-05T22:31:52.281Z,18.45
2018-12-05T22:34:20.733Z,19.17
2018-12-05T22:36:49.239Z,18.67
2018-12-05T22:39:17.654Z,18.40
2018-12-05T22:41:46.114Z,18.80
2018-12-05T22:44:14.529Z,18.15
2018-12-05T22:46:42.951Z,16.90
2018-12-05T22:49:11.331Z,17.60
2018-12-05T22:51:39.890Z,18.40
2018-12-05T22:54:08.286Z,18.52
2018-12-05T22:56:36.882Z,17.32
2018-12-05T22:59:05.355Z,19.55
2018-12-05T23:01:33.797Z,19.15
2018-12-05T23:04:02.794Z,19.12
2018-12-05T23:06:31.230Z,19.25
2018-12-05T23:08:59.674Z,19.80
2018-12-05T23:11:28.298Z,19.07
2018-12-05T23:13:56.748Z,20.85
2018-12-05T23:16:25.165Z,19.07
2018-12-05T23:18:53.565Z,22.48
2018-12-05T23:21:21.958Z,19.85
2018-12-05T23:23:51.025Z,19.62
2018-12-05T23:26:19.505Z,22.37
2018-12-05T23:28:47.913Z,20.70
2018-12-05T23:31:16.289Z,20.90
2018-12-05T23:33:44.777Z,22.93
2018-12-05T23:36:13.236Z,21.25
2018-12-05T23:38:41.802Z,22.42
2018-12-05T23:41:10.271Z,20.35
2018-12-05T23:43:38.693Z,20.72
2018-12-05T23:46:07.157Z,20.85
2018-12-05T23:48:35.595Z,20.12
2018-12-05T23:51:04.052Z,20.75
2018-12-05T23:53:32.508Z,20.90
2018-12-05T23:56:01.725Z,20.80
2018-12-05T23:58:30.206Z,20.10
